Time;durP1;ratioP1;P1;durP2;ratioP2;P2;SDS_P1;SDS_P2;PMS_P1;PMS_P2;Temp;Humidity;BMP_temperature;BMP_pressure;BME280_temperature;BME280_humidity;BME280_pressure;Samples;Min_cycle;Max_cycle;Signal;HPM_P1;HPM_P2
2022/03/04 00:01:54;;;;;;;23.85;14.52;;;;;;;;;;5027120;28;20046;-60
2022/03/04 00:04:21;;;;;;;30.40;19.15;;;;;;;;;;5028525;28;20107;-61
2022/03/04 00:06:47;;;;;;;24.38;15.25;;;;;;;;;;5011479;28;20037;-61
2022/03/04 00:09:13;;;;;;;22.42;14.75;;;;;;;;;;5027946;28;20038;-60
2022/03/04 00:11:39;;;;;;;28.85;20.17;;;;;;;;;;5028920;28;20404;-60
2022/03/04 00:14:05;;;;;;;29.52;19.38;;;;;;;;;;5026812;28;20042;-61
2022/03/04 00:16:31;;;;;;;31.10;17.95;;;;;;;;;;5026735;28;20045;-61
2022/03/04 00:19:08;;;;;;;34.72;21.27;;;;;;;;;;5026865;28;20042;-61
2022/03/04 00:21:35;;;;;;;32.42;20.60;;;;;;;;;;5026736;28;20192;-62
2022/03/04 00:24:01;;;;;;;24.52;14.52;;;;;;;;;;5024944;28;20461;-62
2022/03/04 00:26:27;;;;;;;25.08;14.40;;;;;;;;;;5028384;28;20046;-62
2022/03/04 00:28:53;;;;;;;29.17;18.73;;;;;;;;;;5027331;28;20064;-60
2022/03/04 00:31:20;;;;;;;31.50;19.88;;;;;;;;;;5027775;28;20045;-60
2022/03/04 00:33:46;;;;;;;23.25;15.32;;;;;;;;;;5028227;28;20142;-61
2022/03/04 00:36:12;;;;;;;29.33;20.60;;;;;;;;;;5026751;28;20045;-61
2022/03/04 00:38:38;;;;;;;37.75;23.70;;;;;;;;;;5026811;28;20041;-60
2022/03/04 00:41:04;;;;;;;38.22;25.35;;;;;;;;;;5027723;28;20112;-61
2022/03/04 00:43:30;;;;;;;33.33;22.48;;;;;;;;;;5026051;28;20116;-61
2022/03/04 00:45:56;;;;;;;22.88;14.45;;;;;;;;;;5027998;28;20117;-60
2022/03/04 00:48:23;;;;;;;37.78;23.83;;;;;;;;;;5026402;28;20092;-60
2022/03/04 00:50:49;;;;;;;28.55;18.58;;;;;;;;;;5027499;28;20069;-60
2022/03/04 00:53:15;;;;;;;36.47;20.75;;;;;;;;;;5024914;28;20742;-60
2022/03/04 00:55:41;;;;;;;35.30;20.33;;;;;;;;;;5026715;28;20125;-61
2022/03/04 00:58:07;;;;;;;39.15;24.13;;;;;;;;;;5027644;28;20046;-61
2022/03/04 01:00:33;;;;;;;34.97;23.00;;;;;;;;;;5009671;28;20538;-61
2022/03/04 01:03:00;;;;;;;31.35;17.85;;;;;;;;;;5026079;28;20049;-62
2022/03/04 01:05:26;;;;;;;26.27;16.45;;;;;;;;;;5026536;28;20442;-61
2022/03/04 01:07:52;;;;;;;32.13;17.55;;;;;;;;;;5027253;28;20097;-61
2022/03/04 01:10:18;;;;;;;28.25;17.35;;;;;;;;;;5025575;28;20095;-61
2022/03/04 01:12:45;;;;;;;26.38;16.98;;;;;;;;;;5027786;28;20053;-62
2022/03/04 01:15:12;;;;;;;32.15;18.92;;;;;;;;;;5026879;28;20050;-61
2022/03/04 01:17:38;;;;;;;29.38;17.48;;;;;;;;;;5025237;28;20037;-60
2022/03/04 01:20:05;;;;;;;28.52;15.10;;;;;;;;;;5026581;28;20033;-60
2022/03/04 01:22:32;;;;;;;29.20;18.13;;;;;;;;;;5026790;28;20669;-62
2022/03/04 01:24:58;;;;;;;36.50;23.08;;;;;;;;;;5026703;28;20037;-61
2022/03/04 01:27:25;;;;;;;28.63;17.25;;;;;;;;;;5025128;28;20045;-61
2022/03/04 01:29:51;;;;;;;18.95;11.88;;;;;;;;;;5027258;28;20123;-60
2022/03/04 01:32:17;;;;;;;33.45;19.45;;;;;;;;;;5025814;28;20041;-61
2022/03/04 01:34:43;;;;;;;28.83;16.80;;;;;;;;;;5025636;28;20056;-59
2022/03/04 01:37:10;;;;;;;31.30;18.27;;;;;;;;;;5023919;28;20044;-60
2022/03/04 01:39:36;;;;;;;33.47;22.17;;;;;;;;;;5025941;28;20491;-60
2022/03/04 01:42:03;;;;;;;25.17;16.42;;;;;;;;;;5026654;28;20049;-60
2022/03/04 01:44:29;;;;;;;34.65;22.77;;;;;;;;;;5026287;28;20069;-60
2022/03/04 01:46:55;;;;;;;27.45;17.25;;;;;;;;;;5024736;28;20454;-60
2022/03/04 01:49:21;;;;;;;32.30;20.27;;;;;;;;;;5024808;28;20049;-60
2022/03/04 01:51:48;;;;;;;30.70;19.75;;;;;;;;;;5025748;28;20076;-60
2022/03/04 01:54:14;;;;;;;29.65;18.75;;;;;;;;;;5041484;28;20041;-59
2022/03/04 01:56:40;;;;;;;31.08;19.55;;;;;;;;;;5024019;28;20138;-60
2022/03/04 01:59:06;;;;;;;33.70;21.45;;;;;;;;;;5027120;28;20048;-60
2022/03/04 02:01:32;;;;;;;23.33;14.93;;;;;;;;;;5024705;28;20052;-62
2022/03/04 02:03:59;;;;;;;29.52;17.10;;;;;;;;;;5026152;28;20049;-61
2022/03/04 02:06:25;;;;;;;24.20;15.65;;;;;;;;;;5025741;28;20063;-60
2022/03/04 02:08:51;;;;;;;20.35;13.43;;;;;;;;;;5027307;28;20037;-61
2022/03/04 02:11:17;;;;;;;29.73;17.33;;;;;;;;;;5027151;28;20419;-59
2022/03/04 02:13:43;;;;;;;31.48;19.90;;;;;;;;;;5027322;28;20527;-61
2022/03/04 02:16:14;;;;;;;23.90;15.82;;;;;;;;;;5041754;28;20041;-60
2022/03/04 02:18:40;;;;;;;26.13;13.93;;;;;;;;;;5025937;28;20040;-60
2022/03/04 02:21:07;;;;;;;30.02;16.55;;;;;;;;;;5025309;28;20561;-60
2022/03/04 02:23:34;;;;;;;32.38;18.52;;;;;;;;;;5031213;28;20041;-60
2022/03/04 02:26:00;;;;;;;24.77;12.93;;;;;;;;;;5029106;28;20144;-62
2022/03/04 02:28:26;;;;;;;23.35;12.50;;;;;;;;;;5045949;28;20124;-60
2022/03/04 02:30:52;;;;;;;23.45;14.73;;;;;;;;;;5029842;28;20045;-61
2022/03/04 02:33:18;;;;;;;34.67;21.48;;;;;;;;;;5030362;28;20060;-61
2022/03/04 02:35:45;;;;;;;22.77;14.13;;;;;;;;;;5028975;28;20029;-61
2022/03/04 02:38:11;;;;;;;23.17;14.25;;;;;;;;;;5030714;28;20073;-61
2022/03/04 02:40:37;;;;;;;31.20;19.02;;;;;;;;;;5031098;28;20049;-61
2022/03/04 02:43:04;;;;;;;30.65;17.35;;;;;;;;;;5029517;28;20041;-61
2022/03/04 02:45:30;;;;;;;26.73;15.93;;;;;;;;;;5026937;28;20041;-61
2022/03/04 02:47:56;;;;;;;35.15;22.02;;;;;;;;;;5030665;28;20041;-61
2022/03/04 02:50:22;;;;;;;35.47;21.70;;;;;;;;;;5029112;28;20091;-61
2022/03/04 02:52:48;;;;;;;23.70;14.20;;;;;;;;;;5029236;28;20343;-60
2022/03/04 02:55:15;;;;;;;26.13;15.85;;;;;;;;;;5030146;28;20040;-59
2022/03/04 02:57:42;;;;;;;34.90;20.90;;;;;;;;;;5028940;28;20042;-61
2022/03/04 03:00:09;;;;;;;33.20;19.35;;;;;;;;;;5027933;28;20045;-61
2022/03/04 03:02:35;;;;;;;34.90;21.30;;;;;;;;;;5029225;28;20045;-61
2022/03/04 03:05:01;;;;;;;32.53;19.13;;;;;;;;;;5030747;28;20076;-60
2022/03/04 03:07:28;;;;;;;34.25;20.60;;;;;;;;;;5030412;28;20392;-60
2022/03/04 03:09:54;;;;;;;26.45;16.55;;;;;;;;;;5028985;28;20041;-61
2022/03/04 03:12:20;;;;;;;22.42;13.07;;;;;;;;;;5029243;28;20049;-59
2022/03/04 03:14:47;;;;;;;15.32;9.48;;;;;;;;;;5029397;28;20382;-60
2022/03/04 03:17:13;;;;;;;29.13;17.95;;;;;;;;;;5030268;28;20053;-60
2022/03/04 03:19:39;;;;;;;33.45;19.02;;;;;;;;;;5028866;28;20041;-60
2022/03/04 03:22:05;;;;;;;26.10;16.30;;;;;;;;;;5029956;28;20053;-61
2022/03/04 03:24:31;;;;;;;20.85;10.93;;;;;;;;;;5030792;28;20048;-61
2022/03/04 03:26:57;;;;;;;20.13;11.98;;;;;;;;;;5029340;28;20103;-60
2022/03/04 03:29:23;;;;;;;26.23;15.52;;;;;;;;;;5030291;28;20121;-59
2022/03/04 03:31:49;;;;;;;24.42;14.57;;;;;;;;;;5028059;28;20053;-60
2022/03/04 03:34:16;;;;;;;24.92;15.57;;;;;;;;;;5029862;28;20056;-60
2022/03/04 03:36:42;;;;;;;30.48;17.27;;;;;;;;;;5028587;28;20033;-61
2022/03/04 03:39:08;;;;;;;24.27;13.52;;;;;;;;;;5028290;28;20448;-61
2022/03/04 03:41:35;;;;;;;24.80;14.63;;;;;;;;;;5028738;28;20096;-60
2022/03/04 03:44:01;;;;;;;36.10;18.80;;;;;;;;;;5028466;28;20517;-61
2022/03/04 03:46:27;;;;;;;31.08;18.85;;;;;;;;;;5029466;28;20404;-61
2022/03/04 03:48:53;;;;;;;36.20;20.13;;;;;;;;;;5028301;28;20124;-60
2022/03/04 03:51:19;;;;;;;28.90;17.90;;;;;;;;;;5029137;28;20411;-60
2022/03/04 03:53:46;;;;;;;45.97;26.00;;;;;;;;;;5029397;28;20037;-60
2022/03/04 03:56:12;;;;;;;42.90;22.35;;;;;;;;;;5029538;28;20033;-62
2022/03/04 03:58:38;;;;;;;27.50;15.48;;;;;;;;;;5029790;28;20037;-61
2022/03/04 04:01:04;;;;;;;29.25;14.52;;;;;;;;;;5028745;28;20045;-62
2022/03/04 04:03:30;;;;;;;28.15;14.65;;;;;;;;;;5025179;28;20064;-60
2022/03/04 04:05:57;;;;;;;34.78;18.63;;;;;;;;;;5027253;28;20432;-60
2022/03/04 04:08:23;;;;;;;44.10;23.90;;;;;;;;;;5044972;28;20415;-61
2022/03/04 04:10:49;;;;;;;49.63;28.83;;;;;;;;;;5028478;28;20033;-61
2022/03/04 04:13:16;;;;;;;33.50;18.13;;;;;;;;;;5028117;28;20154;-59
2022/03/04 04:15:42;;;;;;;35.83;18.70;;;;;;;;;;5044048;28;20373;-60
2022/03/04 04:18:08;;;;;;;32.40;17.10;;;;;;;;;;5029708;28;20092;-61
2022/03/04 04:20:35;;;;;;;46.53;26.48;;;;;;;;;;5028342;28;20072;-61
2022/03/04 04:23:01;;;;;;;46.40;24.77;;;;;;;;;;5010663;28;20042;-62
2022/03/04 04:25:27;;;;;;;65.25;33.40;;;;;;;;;;5027109;28;20045;-61
2022/03/04 04:27:53;;;;;;;60.22;30.63;;;;;;;;;;5011523;28;20073;-62
2022/03/04 04:30:20;;;;;;;42.45;23.40;;;;;;;;;;5027353;28;20034;-60
2022/03/04 04:32:46;;;;;;;42.20;22.83;;;;;;;;;;5029408;28;20055;-60
2022/03/04 04:35:12;;;;;;;47.97;24.50;;;;;;;;;;5027318;28;20037;-60
2022/03/04 04:37:38;;;;;;;36.05;20.27;;;;;;;;;;5027245;28;20033;-62
2022/03/04 04:40:04;;;;;;;33.13;17.67;;;;;;;;;;5027373;28;20500;-62
2022/03/04 04:42:31;;;;;;;31.30;17.42;;;;;;;;;;5022172;28;20056;-61
2022/03/04 04:44:57;;;;;;;27.65;14.35;;;;;;;;;;5028087;28;20037;-60
2022/03/04 04:47:23;;;;;;;28.77;14.50;;;;;;;;;;5028579;28;20124;-60
2022/03/04 04:49:49;;;;;;;36.70;22.15;;;;;;;;;;5028432;28;20049;-61
2022/03/04 04:52:15;;;;;;;35.65;20.58;;;;;;;;;;5043292;28;20512;-61
2022/03/04 04:54:41;;;;;;;41.05;22.50;;;;;;;;;;5024379;28;20120;-60
2022/03/04 04:57:07;;;;;;;40.67;22.63;;;;;;;;;;5028549;28;20033;-60
2022/03/04 04:59:34;;;;;;;33.95;19.00;;;;;;;;;;5027463;28;20514;-60
2022/03/04 05:02:00;;;;;;;23.98;13.85;;;;;;;;;;5026747;28;20068;-61
2022/03/04 05:04:26;;;;;;;22.15;12.65;;;;;;;;;;5027028;28;20269;-62
2022/03/04 05:06:53;;;;;;;35.42;21.30;;;;;;;;;;5008535;28;20038;-61
2022/03/04 05:09:19;;;;;;;30.35;17.67;;;;;;;;;;5026585;28;20052;-60
2022/03/04 05:11:45;;;;;;;38.17;22.88;;;;;;;;;;5027065;28;20049;-61
2022/03/04 05:14:11;;;;;;;24.13;14.35;;;;;;;;;;5027033;28;20049;-59
2022/03/04 05:16:37;;;;;;;21.48;12.50;;;;;;;;;;5026633;28;20037;-60
2022/03/04 05:19:03;;;;;;;32.75;19.95;;;;;;;;;;5028015;28;20037;-60
2022/03/04 05:21:30;;;;;;;24.42;14.68;;;;;;;;;;5025271;28;20091;-61
2022/03/04 05:23:59;;;;;;;19.25;10.50;;;;;;;;;;5028205;28;20041;-61
2022/03/04 05:26:26;;;;;;;47.17;27.15;;;;;;;;;;5026759;28;20891;-61
2022/03/04 05:28:53;;;;;;;30.52;16.42;;;;;;;;;;5026672;28;20095;-60
2022/03/04 05:31:19;;;;;;;32.63;17.98;;;;;;;;;;5026763;28;20057;-60
2022/03/04 05:33:45;;;;;;;36.03;19.42;;;;;;;;;;5027942;28;20411;-61
2022/03/04 05:36:11;;;;;;;44.40;25.58;;;;;;;;;;5026670;28;20103;-62
2022/03/04 05:38:37;;;;;;;42.92;26.50;;;;;;;;;;5027982;28;20041;-62
2022/03/04 05:41:03;;;;;;;29.67;18.05;;;;;;;;;;5027784;28;20065;-61
2022/03/04 05:43:29;;;;;;;31.73;18.15;;;;;;;;;;5020686;28;20048;-61
2022/03/04 05:45:55;;;;;;;22.90;12.90;;;;;;;;;;5026400;28;20095;-61
2022/03/04 05:48:21;;;;;;;24.58;13.55;;;;;;;;;;5028147;28;20037;-60
2022/03/04 05:50:47;;;;;;;35.53;19.60;;;;;;;;;;5028014;28;20037;-61
2022/03/04 05:53:14;;;;;;;24.30;13.07;;;;;;;;;;5027581;28;20092;-62
2022/03/04 05:55:40;;;;;;;24.10;14.88;;;;;;;;;;5026228;28;20045;-61
2022/03/04 05:58:06;;;;;;;42.40;21.23;;;;;;;;;;5026528;28;20069;-61
2022/03/04 06:00:32;;;;;;;47.17;27.20;;;;;;;;;;5027993;28;20048;-60
2022/03/04 06:02:59;;;;;;;52.40;31.30;;;;;;;;;;5027467;28;20136;-61
2022/03/04 06:05:25;;;;;;;41.67;24.40;;;;;;;;;;5026380;28;20128;-61
2022/03/04 06:07:51;;;;;;;19.77;11.18;;;;;;;;;;5026279;28;20048;-60
2022/03/04 06:10:17;;;;;;;44.03;24.70;;;;;;;;;;5027595;28;20042;-60
2022/03/04 06:12:43;;;;;;;26.25;13.00;;;;;;;;;;5027407;28;20568;-61
2022/03/04 06:15:09;;;;;;;43.60;24.73;;;;;;;;;;5026572;28;20034;-61
2022/03/04 06:17:36;;;;;;;34.83;22.10;;;;;;;;;;5023789;28;20060;-59
2022/03/04 06:20:02;;;;;;;28.88;18.08;;;;;;;;;;5025471;28;20369;-61
2022/03/04 06:22:28;;;;;;;25.20;13.30;;;;;;;;;;5025564;28;20053;-61
2022/03/04 06:24:54;;;;;;;36.75;22.75;;;;;;;;;;5027207;28;20052;-63
2022/03/04 06:27:20;;;;;;;37.55;23.55;;;;;;;;;;5026140;28;20049;-61
2022/03/04 06:29:46;;;;;;;49.83;26.20;;;;;;;;;;5007292;28;20119;-61
2022/03/04 06:32:15;;;;;;;59.72;30.65;;;;;;;;;;5024787;28;20148;-59
2022/03/04 06:34:41;;;;;;;48.75;26.85;;;;;;;;;;5042336;28;20353;-61
2022/03/04 06:37:08;;;;;;;67.00;35.15;;;;;;;;;;5026396;28;20114;-60
2022/03/04 06:39:34;;;;;;;50.15;27.65;;;;;;;;;;5026503;28;20049;-60
2022/03/04 06:42:00;;;;;;;42.45;24.63;;;;;;;;;;5023648;28;20056;-60
2022/03/04 06:44:26;;;;;;;48.85;28.45;;;;;;;;;;5025735;28;20095;-61
2022/03/04 06:46:52;;;;;;;39.75;22.60;;;;;;;;;;5023284;28;20042;-60
2022/03/04 06:49:18;;;;;;;30.13;19.63;;;;;;;;;;5026889;28;20045;-60
2022/03/04 06:51:44;;;;;;;31.80;17.70;;;;;;;;;;5027225;28;20395;-60
2022/03/04 06:54:10;;;;;;;36.28;21.70;;;;;;;;;;5024742;28;20160;-61
2022/03/04 06:56:36;;;;;;;41.47;26.15;;;;;;;;;;5042248;28;20068;-61
2022/03/04 06:59:03;;;;;;;35.15;22.17;;;;;;;;;;5040012;28;20192;-61
2022/03/04 07:01:29;;;;;;;31.35;18.58;;;;;;;;;;5026850;28;20033;-61
2022/03/04 07:03:55;;;;;;;29.85;18.23;;;;;;;;;;5009443;28;20045;-60
2022/03/04 07:06:21;;;;;;;43.35;26.17;;;;;;;;;;5008902;28;20049;-61
2022/03/04 07:08:47;;;;;;;38.92;24.42;;;;;;;;;;5028668;28;20051;-62
2022/03/04 07:11:13;;;;;;;42.97;26.30;;;;;;;;;;5029689;28;20124;-61
2022/03/04 07:13:39;;;;;;;27.80;16.63;;;;;;;;;;5039401;28;20049;-60
2022/03/04 07:16:05;;;;;;;29.58;18.42;;;;;;;;;;5029463;28;20503;-61
2022/03/04 07:18:32;;;;;;;37.35;21.65;;;;;;;;;;5031190;28;20034;-60
2022/03/04 07:20:58;;;;;;;37.90;23.40;;;;;;;;;;5031742;28;20048;-60
2022/03/04 07:23:24;;;;;;;37.53;22.52;;;;;;;;;;5032383;28;20037;-60
2022/03/04 07:25:51;;;;;;;38.05;25.15;;;;;;;;;;5031491;28;20120;-61
2022/03/04 07:28:17;;;;;;;36.55;23.75;;;;;;;;;;5028818;28;20076;-61
2022/03/04 07:30:43;;;;;;;24.60;15.73;;;;;;;;;;5028883;28;20065;-60
2022/03/04 07:33:09;;;;;;;26.67;18.40;;;;;;;;;;5044367;28;20737;-60
2022/03/04 07:35:39;;;;;;;23.95;16.08;;;;;;;;;;5028774;28;20029;-62
2022/03/04 07:38:05;;;;;;;24.02;14.93;;;;;;;;;;5026679;28;20148;-61
2022/03/04 07:40:31;;;;;;;19.20;13.10;;;;;;;;;;5028314;28;20099;-60
2022/03/04 07:42:58;;;;;;;18.27;12.10;;;;;;;;;;5027966;28;20056;-61
2022/03/04 07:45:25;;;;;;;24.05;14.73;;;;;;;;;;5028730;28;21396;-60
2022/03/04 07:47:51;;;;;;;25.95;15.05;;;;;;;;;;5027588;28;20060;-61
2022/03/04 07:50:17;;;;;;;20.63;12.13;;;;;;;;;;5027814;28;20047;-60
2022/03/04 07:52:44;;;;;;;34.33;20.58;;;;;;;;;;5027385;28;20051;-61
2022/03/04 07:55:11;;;;;;;30.52;16.95;;;;;;;;;;5029293;28;20049;-61
2022/03/04 07:57:37;;;;;;;38.45;21.77;;;;;;;;;;5028242;28;20045;-60
2022/03/04 08:00:08;;;;;;;16.98;7.85;;;;;;;;;;5026041;28;20048;-61
2022/03/04 08:02:34;;;;;;;43.63;25.25;;;;;;;;;;5033230;28;20060;-61
2022/03/04 08:05:00;;;;;;;22.77;13.05;;;;;;;;;;5026490;28;20536;-61
2022/03/04 08:07:26;;;;;;;32.72;18.67;;;;;;;;;;5027080;28;20049;-60
2022/03/04 08:09:52;;;;;;;44.60;24.23;;;;;;;;;;5029057;28;20068;-60
2022/03/04 08:12:20;;;;;;;40.13;22.20;;;;;;;;;;5027000;28;20511;-60
2022/03/04 08:14:46;;;;;;;40.13;21.90;;;;;;;;;;5026820;28;20049;-59
2022/03/04 08:17:13;;;;;;;47.92;26.25;;;;;;;;;;5029617;28;20494;-60
2022/03/04 08:19:39;;;;;;;54.30;28.55;;;;;;;;;;5010276;28;21589;-60
2022/03/04 08:22:06;;;;;;;42.80;21.85;;;;;;;;;;5029524;28;20037;-61
2022/03/04 08:24:32;;;;;;;53.70;31.02;;;;;;;;;;5028987;28;20051;-59
2022/03/04 08:26:59;;;;;;;50.60;29.48;;;;;;;;;;5027598;28;20112;-60
2022/03/04 08:29:25;;;;;;;47.85;30.13;;;;;;;;;;5029376;28;20046;-60
2022/03/04 08:31:52;;;;;;;41.90;28.70;;;;;;;;;;5027820;28;20065;-61
2022/03/04 08:34:19;;;;;;;40.40;25.73;;;;;;;;;;5030574;28;20055;-61
2022/03/04 08:36:49;;;;;;;36.00;23.10;;;;;;;;;;5025540;28;20395;-61
2022/03/04 08:39:15;;;;;;;31.58;22.60;;;;;;;;;;5042800;28;20517;-60
2022/03/04 08:41:42;;;;;;;25.90;15.88;;;;;;;;;;5028463;28;20397;-60
2022/03/04 08:44:08;;;;;;;25.70;19.75;;;;;;;;;;5028599;28;20049;-61
2022/03/04 08:46:36;;;;;;;26.20;19.25;;;;;;;;;;5027960;28;20042;-60
2022/03/04 08:49:02;;;;;;;22.27;16.65;;;;;;;;;;5027553;28;20053;-61
2022/03/04 08:51:28;;;;;;;25.52;19.42;;;;;;;;;;5027887;28;20042;-61
2022/03/04 08:53:55;;;;;;;22.85;16.70;;;;;;;;;;5028949;28;20484;-61
2022/03/04 08:56:22;;;;;;;25.85;19.20;;;;;;;;;;5026500;28;20112;-61
2022/03/04 08:58:48;;;;;;;25.02;17.60;;;;;;;;;;5028539;28;20068;-61
2022/03/04 09:01:14;;;;;;;28.52;21.83;;;;;;;;;;5009483;28;20041;-60
2022/03/04 09:03:41;;;;;;;24.20;17.27;;;;;;;;;;5028414;28;20384;-59
2022/03/04 09:06:07;;;;;;;28.08;18.88;;;;;;;;;;5028310;28;20049;-60
2022/03/04 09:08:33;;;;;;;27.30;20.08;;;;;;;;;;5010392;28;20578;-61
2022/03/04 09:11:00;;;;;;;28.90;20.00;;;;;;;;;;5028402;28;20029;-60
2022/03/04 09:13:26;;;;;;;25.10;20.52;;;;;;;;;;5031801;28;20041;-60
2022/03/04 09:15:52;;;;;;;24.27;18.15;;;;;;;;;;5026670;28;20045;-62
2022/03/04 09:18:18;;;;;;;24.25;19.20;;;;;;;;;;5026570;28;20034;-61
2022/03/04 09:20:44;;;;;;;21.85;16.45;;;;;;;;;;5026925;28;20487;-61
2022/03/04 09:23:11;;;;;;;21.70;17.42;;;;;;;;;;5041550;28;20403;-61
2022/03/04 09:25:37;;;;;;;24.42;19.70;;;;;;;;;;5027286;28;20466;-61
2022/03/04 09:28:04;;;;;;;19.35;16.33;;;;;;;;;;5029547;28;20049;-60
2022/03/04 09:30:33;;;;;;;21.88;17.25;;;;;;;;;;5029066;28;20525;-62
2022/03/04 09:33:00;;;;;;;21.73;17.88;;;;;;;;;;5010742;28;20528;-61
2022/03/04 09:35:26;;;;;;;20.83;15.57;;;;;;;;;;5025609;28;20032;-61
2022/03/04 09:37:52;;;;;;;15.75;12.52;;;;;;;;;;5027263;28;20037;-61
2022/03/04 09:40:18;;;;;;;23.10;17.80;;;;;;;;;;5027545;28;20053;-60
2022/03/04 09:42:45;;;;;;;20.08;16.55;;;;;;;;;;5009257;28;20054;-62
2022/03/04 09:45:11;;;;;;;22.67;17.70;;;;;;;;;;5027642;28;20052;-61
2022/03/04 09:47:37;;;;;;;24.02;19.83;;;;;;;;;;5026314;28;20049;-61
2022/03/04 09:50:05;;;;;;;23.05;17.67;;;;;;;;;;5026112;28;20052;-60
2022/03/04 09:52:31;;;;;;;21.23;17.13;;;;;;;;;;5024446;28;20128;-62
2022/03/04 09:54:57;;;;;;;18.10;15.38;;;;;;;;;;5025792;28;20480;-60
2022/03/04 09:57:23;;;;;;;20.67;16.15;;;;;;;;;;5007361;28;20048;-60
2022/03/04 09:59:50;;;;;;;17.98;15.65;;;;;;;;;;5026609;28;20056;-61
2022/03/04 10:02:16;;;;;;;18.48;14.93;;;;;;;;;;5041850;28;20045;-61
2022/03/04 10:04:43;;;;;;;19.65;14.15;;;;;;;;;;5026998;28;20116;-60
2022/03/04 10:07:09;;;;;;;18.63;15.63;;;;;;;;;;5025476;28;20053;-61
2022/03/04 10:09:43;;;;;;;17.45;14.48;;;;;;;;;;5026645;28;20503;-61
2022/03/04 10:12:10;;;;;;;17.88;15.27;;;;;;;;;;5046829;28;20265;-61
2022/03/04 10:14:55;;;;;;;16.42;13.35;;;;;;;;;;5042200;28;20038;-61
2022/03/04 10:17:22;;;;;;;17.02;13.98;;;;;;;;;;5027562;28;20059;-61
2022/03/04 10:19:51;;;;;;;15.00;12.63;;;;;;;;;;5025666;28;20495;-61
2022/03/04 10:22:18;;;;;;;14.77;11.88;;;;;;;;;;5027001;28;20061;-61
2022/03/04 10:24:44;;;;;;;15.30;12.57;;;;;;;;;;5027708;28;20037;-61
2022/03/04 10:27:14;;;;;;;13.63;11.52;;;;;;;;;;5009170;28;20096;-61
2022/03/04 10:29:40;;;;;;;15.15;12.00;;;;;;;;;;5025610;28;20394;-61
2022/03/04 10:32:06;;;;;;;15.10;12.40;;;;;;;;;;5025397;28;20077;-62
2022/03/04 10:34:45;;;;;;;14.45;11.77;;;;;;;;;;5027525;28;20069;-61
2022/03/04 10:37:11;;;;;;;13.75;11.43;;;;;;;;;;5025788;28;20471;-61
2022/03/04 10:39:44;;;;;;;13.07;11.68;;;;;;;;;;5026886;28;20400;-61
2022/03/04 10:42:10;;;;;;;15.73;12.10;;;;;;;;;;5025410;28;20053;-60
2022/03/04 10:44:36;;;;;;;14.77;11.40;;;;;;;;;;5030942;28;20308;-61
2022/03/04 10:47:02;;;;;;;13.98;11.23;;;;;;;;;;5012167;28;20061;-61
2022/03/04 10:49:30;;;;;;;13.25;10.50;;;;;;;;;;5045938;28;20495;-61
2022/03/04 10:52:06;;;;;;;11.90;10.48;;;;;;;;;;5032116;28;20041;-61
2022/03/04 10:54:32;;;;;;;11.90;9.73;;;;;;;;;;5012290;28;20034;-61
2022/03/04 10:57:03;;;;;;;12.63;10.90;;;;;;;;;;5033085;28;20052;-62
2022/03/04 10:59:29;;;;;;;11.63;8.85;;;;;;;;;;5027502;28;20038;-60
2022/03/04 11:01:56;;;;;;;13.98;11.27;;;;;;;;;;5031088;28;20049;-60
2022/03/04 11:04:22;;;;;;;11.65;9.43;;;;;;;;;;5032500;28;20077;-60
2022/03/04 11:06:49;;;;;;;15.30;10.07;;;;;;;;;;5031394;28;20037;-60
2022/03/04 11:09:16;;;;;;;16.20;11.93;;;;;;;;;;5030146;28;20045;-60
2022/03/04 11:11:43;;;;;;;15.98;12.18;;;;;;;;;;5030133;28;20140;-61
2022/03/04 11:14:12;;;;;;;13.27;10.07;;;;;;;;;;5028683;28;20049;-61
2022/03/04 11:16:39;;;;;;;14.20;11.32;;;;;;;;;;5028533;28;20395;-61
2022/03/04 11:19:08;;;;;;;14.07;11.35;;;;;;;;;;5031137;28;20392;-62
2022/03/04 11:21:35;;;;;;;15.52;11.45;;;;;;;;;;5029958;28;20045;-61
2022/03/04 11:24:01;;;;;;;13.70;11.70;;;;;;;;;;5012226;28;20132;-62
2022/03/04 11:26:31;;;;;;;14.25;11.45;;;;;;;;;;5029755;28;20060;-61
2022/03/04 11:28:59;;;;;;;15.38;10.88;;;;;;;;;;5010869;28;20412;-62
2022/03/04 11:31:26;;;;;;;15.80;11.20;;;;;;;;;;5029013;28;20048;-62
2022/03/04 11:33:58;;;;;;;13.65;10.85;;;;;;;;;;5028809;28;20519;-61
2022/03/04 11:36:32;;;;;;;14.10;10.30;;;;;;;;;;5028267;28;20054;-61
2022/03/04 11:38:59;;;;;;;9.98;7.25;;;;;;;;;;5029357;28;20042;-61
2022/03/04 11:41:30;;;;;;;14.88;10.52;;;;;;;;;;5028067;28;20060;-61
2022/03/04 11:44:00;;;;;;;10.75;7.72;;;;;;;;;;5026554;28;20129;-60
2022/03/04 11:46:28;;;;;;;13.07;10.15;;;;;;;;;;5029696;28;20116;-62
2022/03/04 11:49:13;;;;;;;15.38;12.13;;;;;;;;;;5029079;28;20481;-61
2022/03/04 11:51:58;;;;;;;14.40;11.02;;;;;;;;;;5026543;28;20153;-62
2022/03/04 11:54:25;;;;;;;15.10;11.55;;;;;;;;;;5029886;28;20107;-61
2022/03/04 11:56:52;;;;;;;14.18;11.65;;;;;;;;;;5029610;28;20376;-62
2022/03/04 11:59:19;;;;;;;14.52;9.68;;;;;;;;;;5028278;28;20041;-61
2022/03/04 12:01:45;;;;;;;12.15;9.88;;;;;;;;;;5029219;28;20128;-61
2022/03/04 12:04:16;;;;;;;13.98;11.35;;;;;;;;;;5027786;28;20068;-62
2022/03/04 12:06:42;;;;;;;13.50;9.93;;;;;;;;;;5028204;28;20073;-61
2022/03/04 12:09:25;;;;;;;14.93;11.02;;;;;;;;;;5029555;28;20487;-62
2022/03/04 12:12:11;;;;;;;16.25;11.55;;;;;;;;;;5027446;28;20505;-61
2022/03/04 12:14:41;;;;;;;15.23;11.50;;;;;;;;;;5028234;28;20045;-61
2022/03/04 12:17:07;;;;;;;10.65;8.07;;;;;;;;;;5027653;28;20108;-61
2022/03/04 12:19:36;;;;;;;11.82;9.02;;;;;;;;;;5027711;28;20045;-61
2022/03/04 12:22:02;;;;;;;16.25;10.68;;;;;;;;;;5027327;28;20107;-61
2022/03/04 12:24:32;;;;;;;12.73;9.13;;;;;;;;;;5029638;28;20479;-62
2022/03/04 12:26:59;;;;;;;10.77;8.02;;;;;;;;;;5027493;28;20080;-62
2022/03/04 12:29:43;;;;;;;12.45;8.70;;;;;;;;;;5027255;28;20446;-61
2022/03/04 12:32:10;;;;;;;14.07;9.57;;;;;;;;;;5052438;28;20092;-61
2022/03/04 12:34:38;;;;;;;14.73;9.90;;;;;;;;;;5029663;28;20487;-61
2022/03/04 12:37:08;;;;;;;12.93;9.00;;;;;;;;;;5029427;28;20037;-61
2022/03/04 12:39:38;;;;;;;12.40;8.07;;;;;;;;;;5027619;28;20045;-61
2022/03/04 12:42:07;;;;;;;12.05;7.32;;;;;;;;;;5043298;28;20547;-62
2022/03/04 12:44:33;;;;;;;12.15;9.38;;;;;;;;;;5026930;28;20519;-62
2022/03/04 12:46:59;;;;;;;12.70;9.38;;;;;;;;;;5027243;28;20087;-62
2022/03/04 12:49:29;;;;;;;11.45;7.88;;;;;;;;;;5026673;28;20064;-61
2022/03/04 12:51:55;;;;;;;10.05;6.95;;;;;;;;;;5028444;28;20034;-61
2022/03/04 12:54:25;;;;;;;10.40;8.13;;;;;;;;;;5026012;28;20045;-61
2022/03/04 12:56:52;;;;;;;11.93;9.43;;;;;;;;;;5010239;28;20442;-62
2022/03/04 12:59:18;;;;;;;11.00;8.70;;;;;;;;;;5026531;28;20518;-60
2022/03/04 13:01:45;;;;;;;11.68;9.23;;;;;;;;;;5028437;28;20432;-62
2022/03/04 13:04:11;;;;;;;12.25;6.95;;;;;;;;;;5028131;28;20120;-61
2022/03/04 13:06:37;;;;;;;8.52;5.63;;;;;;;;;;5026777;28;20111;-62
2022/03/04 13:09:04;;;;;;;10.00;7.15;;;;;;;;;;5028141;28;20518;-61
2022/03/04 13:11:36;;;;;;;8.48;6.38;;;;;;;;;;5027507;28;20446;-61
2022/03/04 13:14:02;;;;;;;9.85;7.30;;;;;;;;;;5028530;28;20041;-61
2022/03/04 13:16:46;;;;;;;11.43;7.50;;;;;;;;;;5025708;28;20040;-62
2022/03/04 13:19:16;;;;;;;11.25;7.75;;;;;;;;;;5026724;28;20069;-61
2022/03/04 13:21:50;;;;;;;9.10;6.05;;;;;;;;;;5026196;28;20069;-63
2022/03/04 13:24:16;;;;;;;;;;;;;;;;;;5027711;28;20083;-60
2022/03/04 13:26:48;;;;;;;9.98;7.82;;;;;;;;;;5036252;28;20326;-61
2022/03/04 13:29:14;;;;;;;10.63;7.32;;;;;;;;;;5026304;28;20045;-62
2022/03/04 13:31:41;;;;;;;9.23;7.47;;;;;;;;;;5026614;28;20054;-61
2022/03/04 13:34:09;;;;;;;11.07;8.02;;;;;;;;;;5028065;28;20101;-62
2022/03/04 13:36:47;;;;;;;10.27;8.30;;;;;;;;;;5028058;28;20091;-61
2022/03/04 13:39:13;;;;;;;14.50;8.38;;;;;;;;;;5026027;28;20037;-62
2022/03/04 13:41:40;;;;;;;10.80;8.13;;;;;;;;;;5025613;28;20079;-62
2022/03/04 13:44:06;;;;;;;10.02;7.30;;;;;;;;;;5010036;28;20126;-62
2022/03/04 13:46:33;;;;;;;9.15;7.13;;;;;;;;;;5024932;28;20048;-62
2022/03/04 13:49:05;;;;;;;9.32;7.43;;;;;;;;;;5025809;28;20150;-62
2022/03/04 13:51:31;;;;;;;10.38;7.30;;;;;;;;;;5041931;28;20145;-61
2022/03/04 13:53:58;;;;;;;8.50;7.10;;;;;;;;;;5026170;28;20563;-61
2022/03/04 13:56:24;;;;;;;8.13;6.07;;;;;;;;;;5026543;28;20042;-62
2022/03/04 13:58:59;;;;;;;7.28;5.70;;;;;;;;;;5026839;28;20132;-61
2022/03/04 14:01:27;;;;;;;8.38;6.13;;;;;;;;;;5025380;28;20056;-61
2022/03/04 14:03:53;;;;;;;9.00;6.75;;;;;;;;;;5026498;28;20068;-61
2022/03/04 14:06:24;;;;;;;9.15;7.45;;;;;;;;;;5039096;28;20041;-59
2022/03/04 14:08:50;;;;;;;10.25;7.13;;;;;;;;;;5028594;28;20034;-60
2022/03/04 14:11:16;;;;;;;9.65;6.80;;;;;;;;;;5026749;28;20400;-60
2022/03/04 14:13:42;;;;;;;9.35;6.82;;;;;;;;;;5028120;28;20048;-59
2022/03/04 14:16:09;;;;;;;10.15;6.88;;;;;;;;;;5027037;28;20048;-60
2022/03/04 14:18:36;;;;;;;8.25;6.85;;;;;;;;;;5032265;28;20033;-61
2022/03/04 14:21:03;;;;;;;9.07;5.75;;;;;;;;;;5051739;28;20053;-61